Piasa, IL (62079)

7:31 AM CST on February 12, 2016 (GMT -0600)
Jersey County along IL 111 | | Change Station
CLOSE
Current Station
Personal Weather Station
Location: Brighton, IL
Elevation: 661 ft
Nearby Weather Stations

Elev 661 ft 39.00 °N, 90.16 °W | Updated 1 minute ago

Overcast
Overcast
23.9 °F
Feels Like 24 °F
N
0.0
Wind Variable Wind from ESE
Gusts 0.0 mph

Today
High -- | Low -- °F
--% Chance of Precip.
Yesterday
High -- | Low -- °F
Precip. -- in
Pressure 30.24 in
Visibility 10.0 miles
Clouds Overcast 3300 ft
Windchill 24 °F
Dew Point 19 °F
Humidity 81%
Rainfall 0.00 in
Snow Depth Not available.
6:56 AM 5:33 PM
Waxing Crescent, 20% visible
METAR KALN 121250Z 29005KT 10SM OVC033 M05/M06 A3024
Pressure 30.24 in
Visibility 10.0 miles
Clouds Overcast 3300 ft
Windchill 24 °F
Dew Point 19 °F
Humidity 81%
Rainfall 0.00 in
Snow Depth Not available.
6:56 AM 5:33 PM
Waxing Crescent, 20% visible
METAR KALN 121250Z 29005KT 10SM OVC033 M05/M06 A3024

10-Day Weather Forecast

Almanac

Astronomy

Feb. 12, 2016 Rise Set
Actual Time
Civil Twilight
Nautical Twilight
Astronomical Twilight
Moon
Length of Visible Light
Length of Day
Tomorrow will be .
, % of the Moon is Illuminated

Today's Extremes

State Highs State Lows

Community

WunderPhotos

Upload Photos

1,892,312 photos uploaded!

WunderBlog® & News

Nearby

Air Quality

  Air Quality AQ Index Pollutant
Not available.

Snow Depth

Station Depth Elevation

Earthquake Activity

City Distance Mag. Time & Date
Minimum magnitude displayed is 2.5.

Coastal Water Temperatures

Place Temperature

Stations

Nearby Weather Stations

Station Location Temp. Windchill Dew Point Humidity Wind Precip. Elev Updated Type
                   

Watches & Warnings

There are currently no watches in effect.